Terminal Aerodrome Forecast
Issued by NWS

Home | Current Version | Previous Version | Text Only | Print | Product List | Glossary On
Versions: 1 2 3 4 5 6 7 8 9 10 11 12 13 14 15 16 17 18 19 20 21 22 23
000
FTAK31 PANC 051137
TAFATK
TAF
PATK 051137Z 0512/0612 VRB03KT P6SM BKN080
     FM052200 20006KT P6SM VCSH SCT050 BKN070=

USA.gov is the U.S. government's official web portal to all federal, state and local government web resources and services.